Terminal Aerodrome Forecast
Issued by NWS

Home | Current Version | Previous Version | Text Only | Print | Product List | Glossary On
Versions: 1 2 3 4 5 6 7 8 9 10 11 12 13 14 15 16 17 18 19 20 21 22 23 24 25 26 27 28
000
FTUS45 KSLC 271741
TAFPVU
TAF
KPVU 271741Z 2718/2818 21010KT P6SM VCSH SCT030 BKN060
     FM271900 28008KT P6SM -SHRA VCTS SCT050CB BKN060
     FM280100 29008KT P6SM SCT070 BKN110
     FM280900 16006KT P6SM SCT080 BKN120=

USA.gov is the U.S. government's official web portal to all federal, state and local government web resources and services.